createdAt,value
2022-09-09T00:00:48.300Z,99422.34
2022-09-09T00:03:23.034Z,99425.53
2022-09-09T00:06:31.335Z,99414.75
2022-09-09T00:09:02.001Z,99411.00
2022-09-09T00:11:58.355Z,99413.06
2022-09-09T00:14:32.235Z,99421.72
2022-09-09T00:17:03.628Z,99433.84
2022-09-09T00:19:39.350Z,99443.38
2022-09-09T00:22:09.764Z,99429.19
2022-09-09T00:24:43.500Z,99431.19
2022-09-09T00:27:33.773Z,99415.66
2022-09-09T00:30:15.428Z,99423.44
2022-09-09T00:32:44.475Z,99426.81
2022-09-09T00:35:18.958Z,99423.41
2022-09-09T00:37:49.997Z,99421.53
2022-09-09T00:40:27.372Z,99425.66
2022-09-09T00:43:20.449Z,99431.59
2022-09-09T00:46:30.294Z,99427.31
2022-09-09T00:49:03.582Z,99420.41
2022-09-09T00:52:11.662Z,99417.53
2022-09-09T00:54:58.295Z,99424.34
2022-09-09T00:57:33.966Z,99421.63
2022-09-09T01:00:18.292Z,99440.31
2022-09-09T01:02:59.157Z,99436.13
2022-09-09T01:05:48.582Z,99437.97
2022-09-09T01:08:29.423Z,99444.47
2022-09-09T01:10:58.967Z,99441.16
2022-09-09T01:13:31.458Z,99450.34
2022-09-09T01:16:06.241Z,99449.38
2022-09-09T01:18:39.852Z,99450.09
2022-09-09T01:21:48.404Z,99452.63
2022-09-09T01:24:32.316Z,99464.50
2022-09-09T01:27:02.539Z,99465.72
2022-09-09T01:29:30.342Z,99473.31
2022-09-09T01:32:03.546Z,99469.69
2022-09-09T01:34:36.116Z,99468.03
2022-09-09T01:37:05.967Z,99471.81
2022-09-09T01:39:37.810Z,99473.47
2022-09-09T01:42:07.994Z,99470.38
2022-09-09T01:44:36.082Z,99481.56
2022-09-09T01:47:04.197Z,99479.91
2022-09-09T01:49:33.622Z,99482.84
2022-09-09T01:52:03.356Z,99487.41
2022-09-09T01:54:32.540Z,99490.50
2022-09-09T01:57:19.966Z,99490.31
2022-09-09T02:00:08.915Z,99482.22
2022-09-09T02:03:02.016Z,99477.44
2022-09-09T02:05:41.180Z,99476.22
2022-09-09T02:08:10.664Z,99479.09
2022-09-09T02:10:46.655Z,99479.72
2022-09-09T02:13:16.129Z,99475.75
2022-09-09T02:15:54.363Z,99477.84
2022-09-09T02:18:28.705Z,99482.37
2022-09-09T02:20:58.602Z,99475.13
2022-09-09T02:23:26.971Z,99478.03
2022-09-09T02:25:57.370Z,99477.63
2022-09-09T02:28:34.197Z,99472.84
2022-09-09T02:31:03.128Z,99465.38
2022-09-09T02:33:35.821Z,99465.38
2022-09-09T02:36:04.684Z,99461.78
2022-09-09T02:38:37.269Z,99460.97
2022-09-09T02:41:07.384Z,99457.63
2022-09-09T02:43:35.848Z,99462.09
2022-09-09T02:46:52.692Z,99465.59
2022-09-09T02:49:33.937Z,99465.81
2022-09-09T02:52:09.871Z,99460.78
2022-09-09T02:54:39.994Z,99470.53
2022-09-09T02:57:22.344Z,99473.06
2022-09-09T02:59:50.924Z,99474.72
2022-09-09T03:02:24.125Z,99477.81
2022-09-09T03:04:53.698Z,99489.38
2022-09-09T03:07:21.747Z,99486.94
2022-09-09T03:09:49.982Z,99485.69
2022-09-09T03:12:20.173Z,99484.03
2022-09-09T03:14:47.870Z,99486.78
2022-09-09T03:17:15.292Z,99486.53
2022-09-09T03:19:43.583Z,99492.91
2022-09-09T03:22:12.324Z,99482.87
2022-09-09T03:24:41.313Z,99486.66
2022-09-09T03:27:08.693Z,99484.22
2022-09-09T03:29:36.773Z,99483.00
2022-09-09T03:32:06.096Z,99479.91
2022-09-09T03:34:33.523Z,99477.84
2022-09-09T03:37:01.901Z,99469.16
2022-09-09T03:39:30.262Z,99479.09
2022-09-09T03:41:59.705Z,99478.41
2022-09-09T03:44:28.755Z,99482.78
2022-09-09T03:46:56.519Z,99481.78
2022-09-09T03:49:25.471Z,99498.16
2022-09-09T03:51:54.458Z,99496.09
2022-09-09T03:54:23.575Z,99501.09
2022-09-09T03:56:51.400Z,99498.19
2022-09-09T03:59:19.914Z,99508.00
2022-09-09T04:01:48.408Z,99508.19
2022-09-09T04:04:16.410Z,99510.44
2022-09-09T04:06:44.164Z,99512.09
2022-09-09T04:09:11.692Z,99506.69
2022-09-09T04:11:39.568Z,99503.59
2022-09-09T04:14:07.517Z,99510.25
2022-09-09T04:16:36.432Z,99516.06
2022-09-09T04:19:08.948Z,99516.50
2022-09-09T04:21:37.217Z,99505.19
2022-09-09T04:24:05.740Z,99503.97
2022-09-09T04:26:34.201Z,99503.97
2022-09-09T04:29:02.220Z,99508.47
2022-09-09T04:31:30.881Z,99500.53
2022-09-09T04:33:58.571Z,99495.66
2022-09-09T04:36:26.285Z,99509.12
2022-09-09T04:38:55.724Z,99500.84
2022-09-09T04:41:23.743Z,99489.25
2022-09-09T04:43:51.526Z,99485.69
2022-09-09T04:46:19.605Z,99489.25
2022-09-09T04:48:48.196Z,99489.84
2022-09-09T04:51:16.341Z,99490.44
2022-09-09T04:53:44.821Z,99494.38
2022-09-09T04:56:18.986Z,99492.69
2022-09-09T04:58:48.293Z,99498.53
2022-09-09T05:01:22.226Z,99503.31
2022-09-09T05:03:51.087Z,99502.25
2022-09-09T05:06:20.805Z,99498.09
2022-09-09T05:08:51.768Z,99510.59
2022-09-09T05:11:26.900Z,99503.50
2022-09-09T05:13:58.176Z,99514.28
2022-09-09T05:16:31.737Z,99516.31
2022-09-09T05:19:00.359Z,99509.94
2022-09-09T05:21:29.490Z,99515.59
2022-09-09T05:23:57.195Z,99512.06
2022-09-09T05:26:25.554Z,99521.03
2022-09-09T05:28:54.613Z,99512.91
2022-09-09T05:31:22.701Z,99521.34
2022-09-09T05:33:53.447Z,99522.38
2022-09-09T05:36:23.211Z,99527.63
2022-09-09T05:38:56.882Z,99531.13
2022-09-09T05:41:25.453Z,99526.19
2022-09-09T05:43:54.211Z,99530.69
2022-09-09T05:46:24.092Z,99523.03
2022-09-09T05:48:53.153Z,99527.06
2022-09-09T05:51:28.154Z,99533.56
2022-09-09T05:53:59.483Z,99528.41
2022-09-09T05:56:29.910Z,99523.00
2022-09-09T05:59:04.233Z,99527.56
2022-09-09T06:01:36.112Z,99530.16
2022-09-09T06:04:05.037Z,99524.72
2022-09-09T06:06:38.081Z,99523.44
2022-09-09T06:09:10.948Z,99522.84
2022-09-09T06:11:43.238Z,99524.47
2022-09-09T06:14:11.631Z,99517.56
2022-09-09T06:16:39.454Z,99524.34
2022-09-09T06:19:07.643Z,99526.63
2022-09-09T06:21:38.080Z,99526.66
2022-09-09T06:24:06.291Z,99523.97
2022-09-09T06:26:36.464Z,99529.34
2022-09-09T06:29:08.062Z,99533.47
2022-09-09T06:31:38.122Z,99533.03
2022-09-09T06:34:09.604Z,99535.34
2022-09-09T06:36:40.139Z,99535.56
2022-09-09T06:39:14.650Z,99532.44
2022-09-09T06:41:43.974Z,99534.69
2022-09-09T06:44:16.588Z,99536.81
2022-09-09T06:46:49.132Z,99540.53
2022-09-09T06:49:18.171Z,99537.38
2022-09-09T06:51:48.512Z,99542.38
2022-09-09T06:54:21.052Z,99545.41
2022-09-09T06:56:51.126Z,99545.84
2022-09-09T06:59:23.245Z,99544.56
2022-09-09T07:01:56.015Z,99553.97
2022-09-09T07:04:26.328Z,99551.94
2022-09-09T07:06:55.102Z,99553.81
2022-09-09T07:09:26.598Z,99555.88
2022-09-09T07:11:54.794Z,99556.69
2022-09-09T07:14:23.879Z,99552.53
2022-09-09T07:16:55.449Z,99555.00
2022-09-09T07:19:27.736Z,99560.88
2022-09-09T07:21:56.519Z,99549.66
2022-09-09T07:24:33.836Z,99557.78
2022-09-09T07:27:02.213Z,99557.19
2022-09-09T07:29:30.330Z,99553.41
2022-09-09T07:32:01.119Z,99565.66
2022-09-09T07:34:32.776Z,99565.50
2022-09-09T07:37:01.706Z,99557.09
2022-09-09T07:39:37.178Z,99559.00
2022-09-09T07:42:06.121Z,99573.09
2022-09-09T07:44:36.637Z,99574.50
2022-09-09T07:49:33.678Z,99569.75
2022-09-09T07:52:03.668Z,99575.97
2022-09-09T07:54:32.966Z,99577.75
2022-09-09T07:57:01.705Z,99574.84
2022-09-09T07:59:35.529Z,99562.78
2022-09-09T08:02:06.652Z,99576.16
2022-09-09T08:04:37.661Z,99566.56
2022-09-09T08:07:05.611Z,99564.38
2022-09-09T08:09:34.709Z,99568.50
2022-09-09T08:12:03.822Z,99569.25
2022-09-09T08:14:31.789Z,99561.38
2022-09-09T08:17:00.785Z,99568.19
2022-09-09T08:19:37.119Z,99560.06
2022-09-09T08:22:05.617Z,99560.78
2022-09-09T08:24:34.578Z,99567.81
2022-09-09T08:27:06.133Z,99573.87
2022-09-09T08:29:34.932Z,99571.69
2022-09-09T08:32:04.743Z,99566.25
2022-09-09T08:34:33.588Z,99566.94
2022-09-09T08:37:02.260Z,99577.03
2022-09-09T08:39:34.497Z,99574.16
2022-09-09T08:42:09.517Z,99567.31
2022-09-09T08:44:59.674Z,99576.00
2022-09-09T08:47:56.035Z,99582.69
2022-09-09T08:50:29.006Z,99578.47
2022-09-09T08:53:09.697Z,99576.81
2022-09-09T08:55:47.198Z,99577.31
2022-09-09T08:58:26.414Z,99582.53
2022-09-09T09:01:09.549Z,99572.97
2022-09-09T09:03:46.933Z,99577.88
2022-09-09T09:06:23.855Z,99569.91
2022-09-09T09:09:09.838Z,99572.78
2022-09-09T09:11:43.702Z,99573.06
2022-09-09T09:14:25.877Z,99567.41
2022-09-09T09:17:02.396Z,99570.69
2022-09-09T09:19:31.436Z,99564.56
2022-09-09T09:22:22.289Z,99555.66
2022-09-09T09:24:59.879Z,99553.28
2022-09-09T09:27:34.643Z,99548.59
2022-09-09T09:30:30.716Z,99546.13
2022-09-09T09:33:07.368Z,99542.97
2022-09-09T09:35:41.686Z,99542.66
2022-09-09T09:41:13.656Z,99544.97
2022-09-09T09:43:43.667Z,99550.50
2022-09-09T09:46:26.822Z,99547.28
2022-09-09T09:49:06.464Z,99554.44
2022-09-09T09:51:35.185Z,99553.59
2022-09-09T09:54:17.111Z,99553.59
2022-09-09T09:56:46.266Z,99559.66
2022-09-09T09:59:45.537Z,99557.50
2022-09-09T10:02:28.215Z,99547.47
2022-09-09T10:05:14.211Z,99549.50
2022-09-09T10:07:44.870Z,99555.16
2022-09-09T10:10:21.016Z,99548.06
2022-09-09T10:13:10.609Z,99549.72
2022-09-09T10:15:56.131Z,99544.06
2022-09-09T10:18:46.309Z,99545.94
2022-09-09T10:21:14.185Z,99543.47
2022-09-09T10:23:58.594Z,99551.84
2022-09-09T10:26:41.276Z,99547.09
2022-09-09T10:29:33.958Z,99539.03
2022-09-09T10:32:26.506Z,99538.94
2022-09-09T10:35:18.819Z,99542.50
2022-09-09T10:38:18.866Z,99537.56
2022-09-09T10:40:56.463Z,99535.25
2022-09-09T10:43:45.908Z,99533.59
2022-09-09T10:46:45.684Z,99541.00
2022-09-09T10:49:35.115Z,99538.28
2022-09-09T10:52:14.450Z,99539.88
2022-09-09T10:55:02.743Z,99531.09
2022-09-09T10:57:44.697Z,99530.00
2022-09-09T11:00:21.370Z,99533.44
2022-09-09T11:03:03.097Z,99531.53
2022-09-09T11:05:45.937Z,99531.59
2022-09-09T11:08:19.738Z,99535.84
2022-09-09T11:11:03.620Z,99526.75
2022-09-09T11:13:53.494Z,99521.97
2022-09-09T11:16:46.774Z,99514.38
2022-09-09T11:19:22.470Z,99523.28
2022-09-09T11:21:52.156Z,99521.84
2022-09-09T11:24:30.749Z,99524.59
2022-09-09T11:27:05.072Z,99531.72
2022-09-09T11:29:39.145Z,99539.62
2022-09-09T11:32:24.900Z,99535.69
2022-09-09T11:35:07.743Z,99535.28
2022-09-09T11:37:48.847Z,99540.62
2022-09-09T11:40:23.454Z,99539.72
2022-09-09T11:43:23.037Z,99523.28
2022-09-09T11:46:00.344Z,99522.75
2022-09-09T11:48:36.182Z,99531.22
2022-09-09T11:51:14.610Z,99525.69
2022-09-09T11:53:59.868Z,99524.59
2022-09-09T11:56:32.952Z,99519.31
2022-09-09T11:59:04.881Z,99528.00
2022-09-09T12:02:02.803Z,99529.41
2022-09-09T12:04:42.227Z,99525.34
2022-09-09T12:07:09.697Z,99524.59
2022-09-09T12:09:46.193Z,99532.50
2022-09-09T12:12:13.512Z,99541.50
2022-09-09T12:15:10.197Z,99543.00
2022-09-09T12:17:43.409Z,99536.59
2022-09-09T12:20:24.691Z,99527.69
2022-09-09T12:23:11.213Z,99519.72
2022-09-09T12:25:45.332Z,99521.00
2022-09-09T12:28:26.274Z,99503.00
2022-09-09T12:31:01.619Z,99499.78
2022-09-09T12:33:40.476Z,99509.91
2022-09-09T12:36:13.408Z,99506.19
2022-09-09T12:38:42.552Z,99498.44
2022-09-09T12:41:23.861Z,99493.62
2022-09-09T12:44:07.475Z,99484.00
2022-09-09T12:46:39.338Z,99486.34
2022-09-09T12:49:07.601Z,99477.28
2022-09-09T12:51:35.663Z,99484.81
2022-09-09T12:54:04.544Z,99482.56
2022-09-09T12:56:33.012Z,99480.16
2022-09-09T12:59:01.921Z,99472.81
2022-09-09T13:01:32.534Z,99470.06
2022-09-09T13:04:00.713Z,99455.78
2022-09-09T13:06:30.523Z,99452.41
2022-09-09T13:09:00.260Z,99445.88
2022-09-09T13:11:30.328Z,99449.09
2022-09-09T13:13:58.655Z,99445.25
2022-09-09T13:16:42.015Z,99436.78
2022-09-09T13:19:15.980Z,99430.41
2022-09-09T13:21:43.956Z,99437.56
2022-09-09T13:24:32.970Z,99443.41
2022-09-09T13:27:05.917Z,99447.69
2022-09-09T13:29:33.645Z,99449.00
2022-09-09T13:32:17.500Z,99440.59
2022-09-09T13:35:00.262Z,99433.06
2022-09-09T13:37:37.551Z,99428.59
2022-09-09T13:40:20.811Z,99431.38
2022-09-09T13:42:49.059Z,99432.03
2022-09-09T13:45:21.497Z,99426.12
2022-09-09T13:47:53.355Z,99425.91
2022-09-09T13:50:30.961Z,99432.97
2022-09-09T13:53:00.637Z,99418.88
2022-09-09T13:55:33.697Z,99408.91
2022-09-09T13:58:03.758Z,99403.22
2022-09-09T14:00:35.976Z,99405.69
2022-09-09T14:03:04.283Z,99411.91
2022-09-09T14:05:34.253Z,99391.78
2022-09-09T14:08:02.039Z,99382.38
2022-09-09T14:10:29.782Z,99386.22
2022-09-09T14:12:57.584Z,99382.84
2022-09-09T14:15:28.879Z,99390.19
2022-09-09T14:18:00.937Z,99389.34
2022-09-09T14:20:29.865Z,99388.28
2022-09-09T14:23:02.847Z,99389.41
2022-09-09T14:25:31.149Z,99378.47
2022-09-09T14:27:59.081Z,99384.22
2022-09-09T14:30:26.676Z,99385.41
2022-09-09T14:32:54.191Z,99377.09
2022-09-09T14:35:23.292Z,99388.41
2022-09-09T14:37:50.758Z,99378.66
2022-09-09T14:40:18.953Z,99381.59
2022-09-09T14:42:47.089Z,99369.31
2022-09-09T14:45:14.828Z,99369.81
2022-09-09T14:47:42.659Z,99365.62
2022-09-09T14:50:10.478Z,99378.56
2022-09-09T14:52:38.116Z,99374.09
2022-09-09T14:55:13.096Z,99376.44
2022-09-09T14:57:45.361Z,99381.34
2022-09-09T15:00:15.164Z,99379.34
2022-09-09T15:02:47.278Z,99377.69
2022-09-09T15:05:19.417Z,99371.34
2022-09-09T15:07:52.072Z,99370.28
2022-09-09T15:10:22.599Z,99381.31
2022-09-09T15:12:50.813Z,99370.19
2022-09-09T15:15:18.449Z,99368.84
2022-09-09T15:17:46.198Z,99368.69
2022-09-09T15:20:14.755Z,99372.28
2022-09-09T15:22:42.558Z,99370.88
2022-09-09T15:25:10.205Z,99374.31
2022-09-09T15:27:41.594Z,99375.59
2022-09-09T15:30:13.477Z,99372.06
2022-09-09T15:32:44.352Z,99371.25
2022-09-09T15:35:18.114Z,99372.62
2022-09-09T15:37:46.540Z,99374.31
2022-09-09T15:40:14.191Z,99377.53
2022-09-09T15:42:46.272Z,99373.75
2022-09-09T15:45:16.721Z,99376.09
2022-09-09T15:47:50.047Z,99367.91
2022-09-09T15:50:18.846Z,99372.88
2022-09-09T15:52:47.199Z,99364.78
2022-09-09T15:55:20.265Z,99368.94
2022-09-09T15:57:50.505Z,99367.97
2022-09-09T16:00:20.712Z,99360.16
2022-09-09T16:02:49.156Z,99366.16
2022-09-09T16:05:17.419Z,99367.09
2022-09-09T16:07:46.103Z,99385.72
2022-09-09T16:10:14.735Z,99378.47
2022-09-09T16:12:50.295Z,99392.47
2022-09-09T16:15:36.076Z,99389.06
2022-09-09T16:18:04.300Z,99389.81
2022-09-09T16:20:32.317Z,99386.63
2022-09-09T16:22:59.718Z,99392.72
2022-09-09T16:25:27.328Z,99395.31
2022-09-09T16:27:55.158Z,99384.78
2022-09-09T16:30:22.920Z,99386.31
2022-09-09T16:32:50.730Z,99386.88
2022-09-09T16:35:20.595Z,99394.75
2022-09-09T16:37:48.157Z,99387.31
2022-09-09T16:40:16.207Z,99388.47
2022-09-09T16:42:43.972Z,99380.25
2022-09-09T16:45:11.393Z,99386.91
2022-09-09T16:47:41.418Z,99387.06
2022-09-09T16:50:09.671Z,99396.31
2022-09-09T16:52:37.337Z,99399.97
2022-09-09T16:55:07.716Z,99394.13
2022-09-09T16:57:35.961Z,99397.34
2022-09-09T17:00:06.873Z,99399.06
2022-09-09T17:02:34.964Z,99396.56
2022-09-09T17:05:02.813Z,99398.84
2022-09-09T17:07:32.640Z,99401.56
2022-09-09T17:10:00.858Z,99388.38
2022-09-09T17:12:28.974Z,99396.28
2022-09-09T17:14:57.890Z,99390.91
2022-09-09T17:17:32.017Z,99392.38
2022-09-09T17:20:00.622Z,99402.59
2022-09-09T17:22:29.789Z,99394.38
2022-09-09T17:25:01.923Z,99392.31
2022-09-09T17:27:34.295Z,99383.50
2022-09-09T17:30:02.032Z,99395.53
2022-09-09T17:32:29.948Z,99393.75
2022-09-09T17:34:58.021Z,99388.16
2022-09-09T17:37:25.685Z,99393.69
2022-09-09T17:39:55.981Z,99390.50
2022-09-09T17:42:27.108Z,99398.53
2022-09-09T17:44:54.902Z,99395.25
2022-09-09T17:47:23.413Z,99398.81
2022-09-09T17:49:54.750Z,99396.84
2022-09-09T17:52:22.415Z,99398.37
2022-09-09T17:54:50.850Z,99398.91
2022-09-09T17:57:20.397Z,99390.84
2022-09-09T17:59:48.592Z,99387.84
2022-09-09T18:02:16.422Z,99384.06
2022-09-09T18:04:45.121Z,99393.34
2022-09-09T18:07:14.338Z,99402.28
2022-09-09T18:09:43.506Z,99410.94
2022-09-09T18:12:12.628Z,99420.16
2022-09-09T18:14:41.338Z,99413.66
2022-09-09T18:17:10.879Z,99410.97
2022-09-09T18:19:45.983Z,99409.59
2022-09-09T18:22:20.201Z,99413.97
2022-09-09T18:24:50.397Z,99414.56
2022-09-09T18:27:18.435Z,99411.16
2022-09-09T18:29:49.251Z,99401.66
2022-09-09T18:32:23.838Z,99414.03
2022-09-09T18:34:55.485Z,99423.69
2022-09-09T18:37:32.041Z,99414.84
2022-09-09T18:40:02.140Z,99414.94
2022-09-09T18:42:31.078Z,99410.59
2022-09-09T18:44:59.105Z,99414.19
2022-09-09T18:47:29.985Z,99420.63
2022-09-09T18:49:59.154Z,99421.72
2022-09-09T18:52:30.046Z,99419.41
2022-09-09T18:54:58.547Z,99412.47
2022-09-09T18:57:33.319Z,99415.50
2022-09-09T19:00:06.375Z,99421.13
2022-09-09T19:02:34.223Z,99424.31
2022-09-09T19:05:03.831Z,99415.16
2022-09-09T19:07:35.266Z,99414.00
2022-09-09T19:10:06.848Z,99403.62
2022-09-09T19:12:44.894Z,99407.69
2022-09-09T19:15:12.966Z,99413.87
2022-09-09T19:17:40.974Z,99412.63
2022-09-09T19:20:10.241Z,99410.19
2022-09-09T19:22:41.971Z,99409.38
2022-09-09T19:25:13.201Z,99405.91
2022-09-09T19:27:44.006Z,99402.78
2022-09-09T19:30:14.001Z,99404.91
2022-09-09T19:32:53.328Z,99404.28
2022-09-09T19:35:24.626Z,99403.34
2022-09-09T19:37:53.112Z,99408.53
2022-09-09T19:40:24.773Z,99409.72
2022-09-09T19:42:54.351Z,99406.59
2022-09-09T19:45:22.295Z,99404.41
2022-09-09T19:47:50.204Z,99409.97
2022-09-09T19:50:20.010Z,99411.88
2022-09-09T19:52:49.920Z,99404.41
2022-09-09T19:55:20.488Z,99408.47
2022-09-09T19:57:54.561Z,99410.75
2022-09-09T20:00:23.642Z,99408.81
2022-09-09T20:03:17.573Z,99404.69
2022-09-09T20:05:43.766Z,99419.19
2022-09-09T20:08:13.481Z,99418.91
2022-09-09T20:10:53.174Z,99417.31
2022-09-09T20:13:21.376Z,99426.41
2022-09-09T20:16:02.822Z,99430.69
2022-09-09T20:18:39.246Z,99434.91
2022-09-09T20:21:12.468Z,99438.69
2022-09-09T20:23:42.160Z,99439.66
2022-09-09T20:26:13.335Z,99437.97
2022-09-09T20:28:42.567Z,99434.44
2022-09-09T20:31:14.741Z,99438.19
2022-09-09T20:33:43.756Z,99431.72
2022-09-09T20:36:17.453Z,99428.63
2022-09-09T20:39:01.460Z,99433.06
2022-09-09T20:41:32.354Z,99428.34
2022-09-09T20:44:06.144Z,99426.44
2022-09-09T20:46:38.277Z,99424.78
2022-09-09T20:49:08.110Z,99416.72
2022-09-09T20:51:38.344Z,99416.91
2022-09-09T20:54:10.508Z,99409.00
2022-09-09T20:56:41.126Z,99401.25
2022-09-09T20:59:12.459Z,99395.75
2022-09-09T21:01:44.062Z,99408.72
2022-09-09T21:04:13.355Z,99407.84
2022-09-09T21:06:41.207Z,99401.78
2022-09-09T21:09:09.008Z,99407.44
2022-09-09T21:11:41.745Z,99407.41
2022-09-09T21:14:14.169Z,99417.94
2022-09-09T21:16:42.913Z,99423.63
2022-09-09T21:19:10.651Z,99426.84
2022-09-09T21:21:38.772Z,99420.66
2022-09-09T21:24:07.455Z,99421.81
2022-09-09T21:26:37.532Z,99411.38
2022-09-09T21:29:05.973Z,99414.28
2022-09-09T21:31:33.991Z,99416.19
2022-09-09T21:34:01.890Z,99406.56
2022-09-09T21:36:32.174Z,99406.09
2022-09-09T21:39:00.124Z,99402.81
2022-09-09T21:41:32.361Z,99406.94
2022-09-09T21:44:03.009Z,99403.81
2022-09-09T21:46:30.594Z,99392.22
2022-09-09T21:49:04.148Z,99401.16
2022-09-09T21:51:34.616Z,99405.47
2022-09-09T21:54:02.377Z,99403.72
2022-09-09T21:56:34.857Z,99404.13
2022-09-09T21:59:04.311Z,99409.53
2022-09-09T22:01:33.772Z,99405.53
2022-09-09T22:04:02.326Z,99409.31
2022-09-09T22:06:30.227Z,99408.88
2022-09-09T22:08:59.576Z,99410.62
2022-09-09T22:11:28.126Z,99408.53
2022-09-09T22:13:56.097Z,99395.28
2022-09-09T22:16:24.200Z,99409.66
2022-09-09T22:18:54.772Z,99405.56
2022-09-09T22:21:23.045Z,99399.87
2022-09-09T22:23:54.831Z,99392.31
2022-09-09T22:26:24.349Z,99387.25
2022-09-09T22:28:54.072Z,99392.81
2022-09-09T22:31:24.928Z,99391.78
2022-09-09T22:33:55.094Z,99392.03
2022-09-09T22:36:23.890Z,99401.22
2022-09-09T22:38:52.120Z,99397.00
2022-09-09T22:41:20.675Z,99399.44
2022-09-09T22:43:54.426Z,99398.75
2022-09-09T22:46:24.144Z,99391.84
2022-09-09T22:48:54.682Z,99390.47
2022-09-09T22:51:23.294Z,99394.78
2022-09-09T22:53:50.869Z,99398.47
2022-09-09T22:56:19.761Z,99391.13
2022-09-09T22:58:48.212Z,99393.97
2022-09-09T23:01:19.454Z,99388.81
2022-09-09T23:03:49.111Z,99389.88
2022-09-09T23:06:23.951Z,99391.75
2022-09-09T23:08:57.782Z,99391.25
2022-09-09T23:11:30.505Z,99390.84
2022-09-09T23:14:00.775Z,99389.56
2022-09-09T23:16:33.989Z,99390.28
2022-09-09T23:19:10.268Z,99390.72
2022-09-09T23:21:42.384Z,99394.47
2022-09-09T23:24:15.652Z,99393.00
2022-09-09T23:26:45.683Z,99382.22
2022-09-09T23:29:14.936Z,99380.72
2022-09-09T23:31:44.556Z,99389.78
2022-09-09T23:34:13.800Z,99387.19
2022-09-09T23:36:45.481Z,99385.13
2022-09-09T23:39:13.632Z,99379.41
2022-09-09T23:41:41.829Z,99383.25
2022-09-09T23:44:14.650Z,99377.22
2022-09-09T23:46:48.245Z,99385.66
2022-09-09T23:49:16.504Z,99384.44
2022-09-09T23:51:44.429Z,99387.84
2022-09-09T23:54:12.445Z,99387.50
2022-09-09T23:56:42.519Z,99396.47
2022-09-09T23:59:16.202Z,99399.16
